Thomson Spirit — 9HA2336 — position and weather

sailwx.info

Track history (hours):
 
Tides and Currents Weather Stations Pressure Air Temp Water Temp Dewpoint Dewpoint Depression Visibility Wind Speed Wind Dir Waves Ship Positions

Thomson Spirit

Last reported at 2017-Apr-23 01:20 UTC. Time now 2017-Apr-23 05:33 UTC.
Position N 37°45' E 025°48'.

Length 214 m; draft 8 m.

Type: Passenger vessel. MMSI: 248368000.

Date/timePositionNaut miles runAvg speedWind from/ knotsBaromVisibWave heightAir tempDewpointWater temp
2017-Apr-23 01:20N 37°45' E 025°48'616.2
2017-Apr-23 00:59N 37°42' E 025°42'816.5
2017-Apr-23 00:31N 37°39' E 025°33'816.5
2017-Apr-23 00:00N 37°35' E 025°24'816.4
2017-Apr-22 23:30N 37°31' E 025°15'815.9
2017-Apr-22 23:00N 37°31' E 025°05'916.9
2017-Apr-22 22:28N 37°32' E 024°53'4516.4
2017-Apr-22 19:44N 37°35' E 023°57'416.7
2017-Apr-22 19:30N 37°37' E 023°52'816.5
2017-Apr-22 19:00N 37°40' E 023°43'816.3
2017-Apr-22 18:31N 37°47' E 023°38'815.7
2017-Apr-22 18:01N 37°55' E 023°37'2 3.9
2017-Apr-22 17:30N 37°56' E 023°38'0 0.0
2017-Apr-22 17:00N 37°56' E 023°38'0 0.0
2017-Apr-22 16:30N 37°56' E 023°38'0 0.0
2017-Apr-22 16:00N 37°56' E 023°38'0 0.0
2017-Apr-22 15:30N 37°56' E 023°38'0 0.0
2017-Apr-22 15:00N 37°56' E 023°38'0 0.0
2017-Apr-22 14:30N 37°56' E 023°38'0 0.0
2017-Apr-22 13:30N 37°56' E 023°38'0 0.0
2017-Apr-22 13:00N 37°56' E 023°38'0 0.0
2017-Apr-22 12:30N 37°56' E 023°38'0 0.0
2017-Apr-22 12:00N 37°56' E 023°38'0 0.0
2017-Apr-22 11:30N 37°56' E 023°38'0 0.0
2017-Apr-22 11:00N 37°56' E 023°38'0 0.0
2017-Apr-22 10:30N 37°56' E 023°38'0 0.0
2017-Apr-22 10:00N 37°56' E 023°38'0 0.0
2017-Apr-22 09:30N 37°56' E 023°38'0 0.0
2017-Apr-22 09:00N 37°56' E 023°38'0 0.0
2017-Apr-22 08:30N 37°56' E 023°38'0 0.0
2017-Apr-22 08:00N 37°56' E 023°38'0 0.0
2017-Apr-22 07:30N 37°56' E 023°38'0 0.0
2017-Apr-22 07:00N 37°56' E 023°38'0 0.0
2017-Apr-22 06:30N 37°56' E 023°38'0 0.0
2017-Apr-22 06:00N 37°56' E 023°38'0 0.0
2017-Apr-22 05:30N 37°56' E 023°38'0 0.0
2017-Apr-22 05:00N 37°56' E 023°38'0 0.0
2017-Apr-22 04:30N 37°56' E 023°38'0 0.0
2017-Apr-22 04:00N 37°56' E 023°38'0 0.0
2017-Apr-22 03:30N 37°56' E 023°38'0 0.0
2017-Apr-22 03:00N 37°56' E 023°38'0 0.0
2017-Apr-22 02:30N 37°56' E 023°38'0 0.0
2017-Apr-22 01:59N 37°56' E 023°38'1 2.6
2017-Apr-22 01:31N 37°56' E 023°37'611.1
2017-Apr-22 01:00N 37°51' E 023°39'612.6
2017-Apr-22 00:30N 37°45' E 023°43'612.5
2017-Apr-22 00:00N 37°39' E 023°46'712.9
2017-Apr-21 23:30N 37°33' E 023°49'713.2
2017-Apr-21 23:00N 37°27' E 023°52'46 7.9
2017-Apr-21 17:13N 37°15' E 024°47'210.5
2017-Apr-21 17:00N 37°16' E 024°50'510.7
2017-Apr-21 16:30N 37°19' E 024°55'611.0
2017-Apr-21 16:00N 37°23' E 025°00'510.9
2017-Apr-21 15:30N 37°26' E 025°06'510.9
2017-Apr-21 15:00N 37°27' E 025°13'5 9.8
2017-Apr-21 14:28N 37°28' E 025°19'0 0.0
2017-Apr-21 13:28N 37°28' E 025°19'0 0.0
2017-Apr-21 12:58N 37°28' E 025°19'0 0.0
2017-Apr-21 12:28N 37°28' E 025°19'0 0.0
2017-Apr-21 11:58N 37°28' E 025°19'0 0.0
2017-Apr-21 11:25N 37°28' E 025°19'0 0.0
2017-Apr-21 10:58N 37°28' E 025°19'0 0.0
2017-Apr-21 10:28N 37°28' E 025°19'0 0.0
2017-Apr-21 09:55N 37°28' E 025°19'0 0.0
2017-Apr-21 09:29N 37°28' E 025°19'0 0.0
2017-Apr-21 09:00N 37°28' E 025°19'0 0.0
2017-Apr-21 08:30N 37°28' E 025°19'0 0.0
2017-Apr-21 08:00N 37°28' E 025°19'0 0.0
2017-Apr-21 07:30N 37°28' E 025°19'0 0.0
2017-Apr-21 07:00N 37°28' E 025°19'0 0.0
2017-Apr-21 06:30N 37°28' E 025°19'0 0.0
2017-Apr-21 06:00N 37°28' E 025°19'0 0.0
2017-Apr-21 05:30N 37°28' E 025°19'0 0.0
2017-Apr-21 05:00N 37°28' E 025°19'0 0.0
2017-Apr-21 04:30N 37°28' E 025°19'1 2.5
2017-Apr-21 04:00N 37°27' E 025°18'511.0
2017-Apr-21 03:30N 37°27' E 025°11'612.3
2017-Apr-21 03:00N 37°21' E 025°12'713.9
2017-Apr-21 02:30N 37°19' E 025°20'713.9
2017-Apr-21 02:00N 37°17' E 025°29'913.9
2017-Apr-21 01:22N 37°14' E 025°39'514.2
2017-Apr-21 01:00N 37°12' E 025°46'36913.1
2017-Apr-19 20:47N 34°36' E 032°38'412.8
2017-Apr-19 20:29N 34°35' E 032°42'612.8
2017-Apr-19 20:00N 34°32' E 032°49'612.6
2017-Apr-19 19:30N 34°31' E 032°56'612.1
2017-Apr-19 19:00N 34°32' E 033°04'612.2
2017-Apr-19 18:30N 34°38' E 033°04'3 5.5
2017-Apr-19 18:00N 34°39' E 033°01'0 0.0
2017-Apr-19 17:30N 34°39' E 033°01'0 0.0
2017-Apr-19 16:21N 34°39' E 033°01'0 0.0
2017-Apr-19 16:00N 34°39' E 033°01'0 0.0
2017-Apr-19 15:27N 34°39' E 033°01'0 0.0
2017-Apr-19 14:33N 34°39' E 033°01'0 0.0
2017-Apr-19 14:27N 34°39' E 033°01'0 0.0
2017-Apr-19 13:18N 34°39' E 033°01'0 0.0
2017-Apr-19 13:00N 34°39' E 033°01'0 0.0
2017-Apr-19 12:09N 34°39' E 033°01'0 0.0
2017-Apr-19 11:51N 34°39' E 033°01'0 0.0
2017-Apr-19 11:21N 34°39' E 033°01'0 0.0
2017-Apr-19 11:00N 34°39' E 033°01'0 0.0
2017-Apr-19 10:21N 34°39' E 033°01'0 0.0
2017-Apr-19 09:54N 34°39' E 033°01'0 0.0
2017-Apr-19 09:27N 34°39' E 033°01'0 0.0
2017-Apr-19 09:00N 34°39' E 033°01'0 0.0
2017-Apr-19 08:31N 34°39' E 033°01'0 0.0
2017-Apr-19 08:00N 34°39' E 033°01'0 0.0
2017-Apr-19 07:30N 34°39' E 033°01'0 0.0
2017-Apr-19 07:00N 34°39' E 033°01'0 0.0
2017-Apr-19 06:30N 34°39' E 033°01'0 0.0
2017-Apr-19 06:00N 34°39' E 033°01'0 0.0
2017-Apr-19 05:31N 34°39' E 033°01'0 0.0
2017-Apr-19 05:00N 34°39' E 033°01'0 0.0
2017-Apr-19 04:30N 34°39' E 033°01'2 3.8
2017-Apr-19 04:00N 34°39' E 033°03'4 8.9
2017-Apr-19 03:30N 34°35' E 033°05'510.8
2017-Apr-19 03:00N 34°31' E 033°01'714.4
2017-Apr-19 02:30N 34°32' E 032°52'612.5
2017-Apr-19 01:59N 34°34' E 032°45'  
2017-Apr-15 15:54N 37°34' E 023°45'513.9
2017-Apr-15 15:31N 37°39' E 023°43'713.8
2017-Apr-15 15:00N 37°45' E 023°39'713.9
2017-Apr-15 14:31N 37°52' E 023°37'4 4.4
2017-Apr-15 13:30N 37°56' E 023°38'0 0.0
2017-Apr-15 12:57N 37°56' E 023°38'0 0.0
2017-Apr-15 12:30N 37°56' E 023°38'0 0.0
2017-Apr-15 12:00N 37°56' E 023°38'0 0.0
2017-Apr-15 11:30N 37°56' E 023°38'0 0.0
2017-Apr-15 11:00N 37°56' E 023°38'0 0.0
2017-Apr-15 10:30N 37°56' E 023°38'0 0.0
2017-Apr-15 10:00N 37°56' E 023°38'0 0.0
2017-Apr-15 09:30N 37°56' E 023°38'0 0.0
2017-Apr-15 08:57N 37°56' E 023°38'0 0.0
2017-Apr-15 08:30N 37°56' E 023°38'0 0.0
2017-Apr-15 08:00N 37°56' E 023°38'0 0.0
2017-Apr-15 07:30N 37°56' E 023°38'0 0.0
2017-Apr-15 07:00N 37°56' E 023°38'0 0.0
2017-Apr-15 06:30N 37°56' E 023°38'0 0.0
2017-Apr-15 06:00N 37°56' E 023°38'0 0.0
2017-Apr-15 05:30N 37°56' E 023°38'0 0.0
2017-Apr-15 05:00N 37°56' E 023°38'0 0.0
2017-Apr-15 04:30N 37°56' E 023°38'0 0.0
2017-Apr-15 04:00N 37°56' E 023°38'2 3.0
2017-Apr-15 03:30N 37°56' E 023°36'0 1.0
2017-Apr-15 03:00N 37°55' E 023°37'510.6
2017-Apr-15 02:30N 37°50' E 023°40'612.9
2017-Apr-15 02:00N 37°45' E 023°43'612.7
2017-Apr-15 01:30N 37°39' E 023°48'4513.4
2017-Apr-14 22:09N 37°32' E 024°44'216.1
2017-Apr-14 22:01N 37°32' E 024°47'816.0
2017-Apr-14 21:30N 37°32' E 024°57'816.2
2017-Apr-14 21:01N 37°31' E 025°07'815.3
2017-Apr-14 20:30N 37°32' E 025°16'816.1
2017-Apr-14 20:01N 37°35' E 025°25'815.8
2017-Apr-14 19:30N 37°39' E 025°34'815.8
2017-Apr-14 19:00N 37°43' E 025°43'  
Track history (hours):
 
Tides and Currents Weather Stations Pressure Air Temp Water Temp Dewpoint Dewpoint Depression Visibility Wind Speed Wind Dir Waves Ship Positions

Thomson Spirit

Last reported at 2017-Apr-23 01:20 UTC. Time now 2017-Apr-23 05:33 UTC.
Position N 37°45' E 025°48'.

Length 214 m; draft 8 m.

Type: Passenger vessel. MMSI: 248368000.

Date/timePositionNaut miles runAvg speedWind from/ knotsBaromVisibWave heightAir tempDewpointWater temp
2017-Apr-23 01:20N 37°45' E 025°48'616.2
2017-Apr-23 00:59N 37°42' E 025°42'816.5
2017-Apr-23 00:31N 37°39' E 025°33'816.5
2017-Apr-23 00:00N 37°35' E 025°24'816.4
2017-Apr-22 23:30N 37°31' E 025°15'815.9
2017-Apr-22 23:00N 37°31' E 025°05'916.9
2017-Apr-22 22:28N 37°32' E 024°53'4516.4
2017-Apr-22 19:44N 37°35' E 023°57'416.7
2017-Apr-22 19:30N 37°37' E 023°52'816.5
2017-Apr-22 19:00N 37°40' E 023°43'816.3
2017-Apr-22 18:31N 37°47' E 023°38'815.7
2017-Apr-22 18:01N 37°55' E 023°37'2 3.9
2017-Apr-22 17:30N 37°56' E 023°38'0 0.0
2017-Apr-22 17:00N 37°56' E 023°38'0 0.0
2017-Apr-22 16:30N 37°56' E 023°38'0 0.0
2017-Apr-22 16:00N 37°56' E 023°38'0 0.0
2017-Apr-22 15:30N 37°56' E 023°38'0 0.0
2017-Apr-22 15:00N 37°56' E 023°38'0 0.0
2017-Apr-22 14:30N 37°56' E 023°38'0 0.0
2017-Apr-22 13:30N 37°56' E 023°38'0 0.0
2017-Apr-22 13:00N 37°56' E 023°38'0 0.0
2017-Apr-22 12:30N 37°56' E 023°38'0 0.0
2017-Apr-22 12:00N 37°56' E 023°38'0 0.0
2017-Apr-22 11:30N 37°56' E 023°38'0 0.0
2017-Apr-22 11:00N 37°56' E 023°38'0 0.0
2017-Apr-22 10:30N 37°56' E 023°38'0 0.0
2017-Apr-22 10:00N 37°56' E 023°38'0 0.0
2017-Apr-22 09:30N 37°56' E 023°38'0 0.0
2017-Apr-22 09:00N 37°56' E 023°38'0 0.0
2017-Apr-22 08:30N 37°56' E 023°38'0 0.0
2017-Apr-22 08:00N 37°56' E 023°38'0 0.0
2017-Apr-22 07:30N 37°56' E 023°38'0 0.0
2017-Apr-22 07:00N 37°56' E 023°38'0 0.0
2017-Apr-22 06:30N 37°56' E 023°38'0 0.0
2017-Apr-22 06:00N 37°56' E 023°38'0 0.0
2017-Apr-22 05:30N 37°56' E 023°38'0 0.0
2017-Apr-22 05:00N 37°56' E 023°38'0 0.0
2017-Apr-22 04:30N 37°56' E 023°38'0 0.0
2017-Apr-22 04:00N 37°56' E 023°38'0 0.0
2017-Apr-22 03:30N 37°56' E 023°38'0 0.0
2017-Apr-22 03:00N 37°56' E 023°38'0 0.0
2017-Apr-22 02:30N 37°56' E 023°38'0 0.0
2017-Apr-22 01:59N 37°56' E 023°38'1 2.6
2017-Apr-22 01:31N 37°56' E 023°37'611.1
2017-Apr-22 01:00N 37°51' E 023°39'612.6
2017-Apr-22 00:30N 37°45' E 023°43'612.5
2017-Apr-22 00:00N 37°39' E 023°46'712.9
2017-Apr-21 23:30N 37°33' E 023°49'713.2
2017-Apr-21 23:00N 37°27' E 023°52'46 7.9
2017-Apr-21 17:13N 37°15' E 024°47'210.5
2017-Apr-21 17:00N 37°16' E 024°50'510.7
2017-Apr-21 16:30N 37°19' E 024°55'611.0
2017-Apr-21 16:00N 37°23' E 025°00'510.9
2017-Apr-21 15:30N 37°26' E 025°06'510.9
2017-Apr-21 15:00N 37°27' E 025°13'5 9.8
2017-Apr-21 14:28N 37°28' E 025°19'0 0.0
2017-Apr-21 13:28N 37°28' E 025°19'0 0.0
2017-Apr-21 12:58N 37°28' E 025°19'0 0.0
2017-Apr-21 12:28N 37°28' E 025°19'0 0.0
2017-Apr-21 11:58N 37°28' E 025°19'0 0.0
2017-Apr-21 11:25N 37°28' E 025°19'0 0.0
2017-Apr-21 10:58N 37°28' E 025°19'0 0.0
2017-Apr-21 10:28N 37°28' E 025°19'0 0.0
2017-Apr-21 09:55N 37°28' E 025°19'0 0.0
2017-Apr-21 09:29N 37°28' E 025°19'0 0.0
2017-Apr-21 09:00N 37°28' E 025°19'0 0.0
2017-Apr-21 08:30N 37°28' E 025°19'0 0.0
2017-Apr-21 08:00N 37°28' E 025°19'0 0.0
2017-Apr-21 07:30N 37°28' E 025°19'0 0.0
2017-Apr-21 07:00N 37°28' E 025°19'0 0.0
2017-Apr-21 06:30N 37°28' E 025°19'0 0.0
2017-Apr-21 06:00N 37°28' E 025°19'0 0.0
2017-Apr-21 05:30N 37°28' E 025°19'0 0.0
2017-Apr-21 05:00N 37°28' E 025°19'0 0.0
2017-Apr-21 04:30N 37°28' E 025°19'1 2.5
2017-Apr-21 04:00N 37°27' E 025°18'511.0
2017-Apr-21 03:30N 37°27' E 025°11'612.3
2017-Apr-21 03:00N 37°21' E 025°12'713.9
2017-Apr-21 02:30N 37°19' E 025°20'713.9
2017-Apr-21 02:00N 37°17' E 025°29'913.9
2017-Apr-21 01:22N 37°14' E 025°39'514.2
2017-Apr-21 01:00N 37°12' E 025°46'36913.1
2017-Apr-19 20:47N 34°36' E 032°38'412.8
2017-Apr-19 20:29N 34°35' E 032°42'612.8
2017-Apr-19 20:00N 34°32' E 032°49'612.6
2017-Apr-19 19:30N 34°31' E 032°56'612.1
2017-Apr-19 19:00N 34°32' E 033°04'612.2
2017-Apr-19 18:30N 34°38' E 033°04'3 5.5
2017-Apr-19 18:00N 34°39' E 033°01'0 0.0
2017-Apr-19 17:30N 34°39' E 033°01'0 0.0
2017-Apr-19 16:21N 34°39' E 033°01'0 0.0
2017-Apr-19 16:00N 34°39' E 033°01'0 0.0
2017-Apr-19 15:27N 34°39' E 033°01'0 0.0
2017-Apr-19 14:33N 34°39' E 033°01'0 0.0
2017-Apr-19 14:27N 34°39' E 033°01'0 0.0
2017-Apr-19 13:18N 34°39' E 033°01'0 0.0
2017-Apr-19 13:00N 34°39' E 033°01'0 0.0
2017-Apr-19 12:09N 34°39' E 033°01'0 0.0
2017-Apr-19 11:51N 34°39' E 033°01'0 0.0
2017-Apr-19 11:21N 34°39' E 033°01'0 0.0
2017-Apr-19 11:00N 34°39' E 033°01'0 0.0
2017-Apr-19 10:21N 34°39' E 033°01'0 0.0
2017-Apr-19 09:54N 34°39' E 033°01'0 0.0
2017-Apr-19 09:27N 34°39' E 033°01'0 0.0
2017-Apr-19 09:00N 34°39' E 033°01'0 0.0
2017-Apr-19 08:31N 34°39' E 033°01'0 0.0
2017-Apr-19 08:00N 34°39' E 033°01'0 0.0
2017-Apr-19 07:30N 34°39' E 033°01'0 0.0
2017-Apr-19 07:00N 34°39' E 033°01'0 0.0
2017-Apr-19 06:30N 34°39' E 033°01'0 0.0
2017-Apr-19 06:00N 34°39' E 033°01'0 0.0
2017-Apr-19 05:31N 34°39' E 033°01'0 0.0
2017-Apr-19 05:00N 34°39' E 033°01'0 0.0
2017-Apr-19 04:30N 34°39' E 033°01'2 3.8
2017-Apr-19 04:00N 34°39' E 033°03'4 8.9
2017-Apr-19 03:30N 34°35' E 033°05'510.8
2017-Apr-19 03:00N 34°31' E 033°01'714.4
2017-Apr-19 02:30N 34°32' E 032°52'612.5
2017-Apr-19 01:59N 34°34' E 032°45'  
2017-Apr-15 15:54N 37°34' E 023°45'513.9
2017-Apr-15 15:31N 37°39' E 023°43'713.8
2017-Apr-15 15:00N 37°45' E 023°39'713.9
2017-Apr-15 14:31N 37°52' E 023°37'4 4.4
2017-Apr-15 13:30N 37°56' E 023°38'0 0.0
2017-Apr-15 12:57N 37°56' E 023°38'0 0.0
2017-Apr-15 12:30N 37°56' E 023°38'0 0.0
2017-Apr-15 12:00N 37°56' E 023°38'0 0.0
2017-Apr-15 11:30N 37°56' E 023°38'0 0.0
2017-Apr-15 11:00N 37°56' E 023°38'0 0.0
2017-Apr-15 10:30N 37°56' E 023°38'0 0.0
2017-Apr-15 10:00N 37°56' E 023°38'0 0.0
2017-Apr-15 09:30N 37°56' E 023°38'0 0.0
2017-Apr-15 08:57N 37°56' E 023°38'0 0.0
2017-Apr-15 08:30N 37°56' E 023°38'0 0.0
2017-Apr-15 08:00N 37°56' E 023°38'0 0.0
2017-Apr-15 07:30N 37°56' E 023°38'0 0.0
2017-Apr-15 07:00N 37°56' E 023°38'0 0.0
2017-Apr-15 06:30N 37°56' E 023°38'0 0.0
2017-Apr-15 06:00N 37°56' E 023°38'0 0.0
2017-Apr-15 05:30N 37°56' E 023°38'0 0.0
2017-Apr-15 05:00N 37°56' E 023°38'0 0.0
2017-Apr-15 04:30N 37°56' E 023°38'0 0.0
2017-Apr-15 04:00N 37°56' E 023°38'2 3.0
2017-Apr-15 03:30N 37°56' E 023°36'0 1.0
2017-Apr-15 03:00N 37°55' E 023°37'510.6
2017-Apr-15 02:30N 37°50' E 023°40'612.9
2017-Apr-15 02:00N 37°45' E 023°43'612.7
2017-Apr-15 01:30N 37°39' E 023°48'4513.4
2017-Apr-14 22:09N 37°32' E 024°44'216.1
2017-Apr-14 22:01N 37°32' E 024°47'816.0
2017-Apr-14 21:30N 37°32' E 024°57'816.2
2017-Apr-14 21:01N 37°31' E 025°07'815.3
2017-Apr-14 20:30N 37°32' E 025°16'816.1
2017-Apr-14 20:01N 37°35' E 025°25'815.8
2017-Apr-14 19:30N 37°39' E 025°34'815.8
2017-Apr-14 19:00N 37°43' E 025°43'  

Dump ship's entire track history